createdAt,value
2022-10-18T00:00:07.274Z,101825.38
2022-10-18T00:02:54.186Z,101828.66
2022-10-18T00:05:20.965Z,101833.66
2022-10-18T00:07:47.916Z,101824.16
2022-10-18T00:10:14.859Z,101826.94
2022-10-18T00:12:41.874Z,101815.91
2022-10-18T00:15:10.335Z,101819.41
2022-10-18T00:17:38.908Z,101815.09
2022-10-18T00:20:07.128Z,101812.66
2022-10-18T00:22:36.621Z,101809.31
2022-10-18T00:25:03.923Z,101812.00
2022-10-18T00:27:31.303Z,101813.94
2022-10-18T00:29:58.224Z,101817.47
2022-10-18T00:32:25.582Z,101811.84
2022-10-18T00:34:52.608Z,101810.47
2022-10-18T00:37:19.608Z,101811.69
2022-10-18T00:39:46.634Z,101807.34
2022-10-18T00:42:18.268Z,101806.56
2022-10-18T00:44:45.000Z,101802.16
2022-10-18T00:47:14.555Z,101810.88
2022-10-18T00:49:44.939Z,101806.16
2022-10-18T00:52:17.282Z,101798.66
2022-10-18T00:54:46.230Z,101798.72
2022-10-18T00:57:14.036Z,101798.66
2022-10-18T00:59:42.571Z,101797.03
2022-10-18T01:02:10.176Z,101790.06
2022-10-18T01:04:37.184Z,101792.69
2022-10-18T01:07:29.121Z,101796.22
2022-10-18T01:10:17.325Z,101791.06
2022-10-18T01:13:08.600Z,101784.41
2022-10-18T01:15:50.565Z,101785.84
2022-10-18T01:18:53.586Z,101786.66
2022-10-18T01:21:29.284Z,101777.22
2022-10-18T01:24:15.181Z,101775.75
2022-10-18T01:27:15.846Z,101773.16
2022-10-18T01:29:54.884Z,101764.50
2022-10-18T01:32:29.031Z,101765.84
2022-10-18T01:35:04.980Z,101767.78
2022-10-18T01:37:35.219Z,101772.56
2022-10-18T01:40:06.685Z,101764.06
2022-10-18T01:42:34.335Z,101755.97
2022-10-18T01:45:03.650Z,101754.50
2022-10-18T01:47:31.557Z,101750.91
2022-10-18T01:50:00.624Z,101742.88
2022-10-18T01:52:27.696Z,101748.16
2022-10-18T01:54:55.987Z,101750.78
2022-10-18T01:57:28.544Z,101746.59
2022-10-18T01:59:58.446Z,101743.72
2022-10-18T02:02:40.262Z,101737.75
2022-10-18T02:05:25.915Z,101742.16
2022-10-18T02:08:23.161Z,101734.25
2022-10-18T02:11:07.434Z,101737.19
2022-10-18T02:13:42.023Z,101727.75
2022-10-18T02:16:35.916Z,101737.78
2022-10-18T02:19:09.064Z,101736.09
2022-10-18T02:21:38.433Z,101740.31
2022-10-18T02:24:06.938Z,101741.28
2022-10-18T02:26:33.953Z,101735.00
2022-10-18T02:29:00.695Z,101731.75
2022-10-18T02:31:35.299Z,101735.25
2022-10-18T02:34:22.359Z,101732.00
2022-10-18T02:37:00.516Z,101739.16
2022-10-18T02:39:31.497Z,101735.25
2022-10-18T02:41:59.513Z,101744.72
2022-10-18T02:44:26.540Z,101735.59
2022-10-18T02:46:53.602Z,101741.03
2022-10-18T02:49:20.320Z,101739.38
2022-10-18T02:51:47.269Z,101735.81
2022-10-18T02:54:14.002Z,101733.94
2022-10-18T02:56:40.953Z,101734.22
2022-10-18T02:59:08.224Z,101733.56
2022-10-18T03:01:36.293Z,101731.59
2022-10-18T03:04:04.445Z,101737.91
2022-10-18T03:06:32.288Z,101735.84
2022-10-18T03:08:59.149Z,101741.22
2022-10-18T03:11:26.093Z,101739.78
2022-10-18T03:13:52.804Z,101745.06
2022-10-18T03:16:19.749Z,101745.22
2022-10-18T03:18:46.667Z,101753.13
2022-10-18T03:21:13.628Z,101757.88
2022-10-18T03:23:42.238Z,101753.28
2022-10-18T03:26:09.678Z,101765.50
2022-10-18T03:28:36.495Z,101754.28
2022-10-18T03:31:04.501Z,101759.53
2022-10-18T03:33:32.712Z,101759.59
2022-10-18T03:36:00.176Z,101763.34
2022-10-18T03:38:27.222Z,101761.59
2022-10-18T03:40:54.172Z,101754.63
2022-10-18T03:43:20.951Z,101753.69
2022-10-18T03:45:47.887Z,101756.53
2022-10-18T03:48:14.819Z,101753.63
2022-10-18T03:50:42.857Z,101752.59
2022-10-18T03:53:10.487Z,101757.13
2022-10-18T03:55:37.716Z,101763.25
2022-10-18T03:58:04.638Z,101761.53
2022-10-18T04:00:31.954Z,101759.81
2022-10-18T04:02:58.719Z,101762.44
2022-10-18T04:05:28.096Z,101751.75
2022-10-18T04:07:55.109Z,101743.66
2022-10-18T04:10:22.229Z,101750.03
2022-10-18T04:12:48.994Z,101747.47
2022-10-18T04:15:16.030Z,101747.19
2022-10-18T04:17:42.813Z,101743.16
2022-10-18T04:20:10.146Z,101742.31
2022-10-18T04:22:36.921Z,101743.84
2022-10-18T04:25:05.131Z,101747.47
2022-10-18T04:27:32.449Z,101739.56
2022-10-18T04:29:59.511Z,101740.38
2022-10-18T04:32:29.483Z,101739.63
2022-10-18T04:34:59.144Z,101737.25
2022-10-18T04:37:25.939Z,101733.63
2022-10-18T04:39:53.798Z,101735.56
2022-10-18T04:42:24.343Z,101736.44
2022-10-18T04:44:51.347Z,101729.78
2022-10-18T04:47:18.277Z,101727.22
2022-10-18T04:49:45.364Z,101729.19
2022-10-18T04:52:12.151Z,101729.09
2022-10-18T04:54:39.102Z,101729.78
2022-10-18T04:57:05.908Z,101724.28
2022-10-18T04:59:32.919Z,101726.50
2022-10-18T05:01:59.833Z,101714.34
2022-10-18T05:04:26.858Z,101717.88
2022-10-18T05:06:53.623Z,101720.66
2022-10-18T05:09:24.516Z,101722.44
2022-10-18T05:11:51.364Z,101723.88
2022-10-18T05:14:18.334Z,101726.81
2022-10-18T05:16:45.093Z,101724.25
2022-10-18T05:19:12.156Z,101722.38
2022-10-18T05:21:38.887Z,101722.50
2022-10-18T05:24:06.134Z,101731.38
2022-10-18T05:26:33.081Z,101725.28
2022-10-18T05:29:00.147Z,101720.56
2022-10-18T05:31:27.012Z,101726.84
2022-10-18T05:33:53.922Z,101731.31
2022-10-18T05:36:20.755Z,101732.28
2022-10-18T05:38:48.424Z,101729.03
2022-10-18T05:41:15.168Z,101724.69
2022-10-18T05:43:42.086Z,101726.13
2022-10-18T05:46:14.763Z,101728.97
2022-10-18T05:48:44.320Z,101727.22
2022-10-18T05:51:11.343Z,101729.09
2022-10-18T05:53:38.491Z,101724.63
2022-10-18T05:56:06.700Z,101720.81
2022-10-18T05:58:34.107Z,101727.81
2022-10-18T06:01:05.475Z,101732.94
2022-10-18T06:03:33.326Z,101731.06
2022-10-18T06:06:00.791Z,101734.28
2022-10-18T06:08:27.862Z,101731.56
2022-10-18T06:10:54.742Z,101727.94
2022-10-18T06:13:21.714Z,101728.47
2022-10-18T06:15:48.475Z,101737.81
2022-10-18T06:18:15.600Z,101726.34
2022-10-18T06:20:42.380Z,101739.25
2022-10-18T06:23:09.335Z,101739.75
2022-10-18T06:25:36.303Z,101745.69
2022-10-18T06:28:07.830Z,101749.59
2022-10-18T06:30:37.138Z,101748.81
2022-10-18T06:33:04.191Z,101750.41
2022-10-18T06:35:30.964Z,101750.09
2022-10-18T06:37:57.929Z,101759.19
2022-10-18T06:40:24.833Z,101754.06
2022-10-18T06:43:00.623Z,101744.00
2022-10-18T06:45:33.447Z,101748.16
2022-10-18T06:48:00.396Z,101746.19
2022-10-18T06:50:27.102Z,101748.53
2022-10-18T06:52:56.901Z,101753.53
2022-10-18T06:55:23.730Z,101749.59
2022-10-18T06:57:50.820Z,101752.78
2022-10-18T07:00:17.560Z,101759.66
2022-10-18T07:02:44.465Z,101759.44
2022-10-18T07:05:11.632Z,101763.28
2022-10-18T07:07:39.517Z,101757.47
2022-10-18T07:10:06.969Z,101751.47
2022-10-18T07:12:34.525Z,101762.38
2022-10-18T07:15:03.486Z,101750.19
2022-10-18T07:17:34.073Z,101751.34
2022-10-18T07:20:00.987Z,101745.44
2022-10-18T07:22:30.231Z,101735.88
2022-10-18T07:24:57.216Z,101742.31
2022-10-18T07:27:24.169Z,101733.59
2022-10-18T07:29:50.994Z,101733.44
2022-10-18T07:32:17.957Z,101726.97
2022-10-18T07:34:44.671Z,101724.38
2022-10-18T07:37:11.653Z,101717.28
2022-10-18T07:39:38.398Z,101725.72
2022-10-18T07:42:05.312Z,101725.81
2022-10-18T07:44:32.086Z,101719.31
2022-10-18T07:46:59.021Z,101720.28
2022-10-18T07:49:25.771Z,101720.41
2022-10-18T07:51:53.219Z,101716.91
2022-10-18T07:54:19.998Z,101714.84
2022-10-18T07:56:47.163Z,101715.31
2022-10-18T07:59:19.087Z,101710.50
2022-10-18T08:01:52.985Z,101706.53
2022-10-18T08:04:21.629Z,101696.41
2022-10-18T08:06:48.746Z,101701.97
2022-10-18T08:09:15.509Z,101693.41
2022-10-18T08:11:42.483Z,101689.69
2022-10-18T08:14:09.213Z,101687.41
2022-10-18T08:16:36.143Z,101692.16
2022-10-18T08:19:02.875Z,101685.84
2022-10-18T08:21:29.863Z,101689.84
2022-10-18T08:23:56.620Z,101688.53
2022-10-18T08:26:23.981Z,101681.50
2022-10-18T08:28:58.468Z,101672.75
2022-10-18T08:31:36.782Z,101666.91
2022-10-18T08:34:03.488Z,101666.97
2022-10-18T08:36:30.488Z,101665.34
2022-10-18T08:38:57.204Z,101657.03
2022-10-18T08:41:51.716Z,101664.72
2022-10-18T08:44:36.313Z,101651.09
2022-10-18T08:47:11.826Z,101652.28
2022-10-18T08:49:55.668Z,101655.56
2022-10-18T08:55:39.559Z,101642.28
2022-10-18T08:58:26.701Z,101628.47
2022-10-18T09:01:20.606Z,101633.63
2022-10-18T09:04:06.128Z,101637.13
2022-10-18T09:06:40.426Z,101617.97
2022-10-18T09:09:25.559Z,101618.06
2022-10-18T09:12:26.913Z,101621.91
2022-10-18T09:15:04.210Z,101621.50
2022-10-18T09:17:44.643Z,101611.66
2022-10-18T09:20:23.832Z,101608.91
2022-10-18T09:23:00.193Z,101606.63
2022-10-18T09:25:36.000Z,101607.00
2022-10-18T09:28:30.747Z,101607.53
2022-10-18T09:31:13.317Z,101598.66
2022-10-18T09:33:52.328Z,101607.84
2022-10-18T09:36:33.607Z,101598.66
2022-10-18T09:39:09.649Z,101599.81
2022-10-18T09:41:54.336Z,101598.91
2022-10-18T09:44:33.040Z,101593.28
2022-10-18T09:47:16.906Z,101583.38
2022-10-18T09:49:47.468Z,101584.22
2022-10-18T09:52:21.407Z,101578.25
2022-10-18T09:54:56.057Z,101582.16
2022-10-18T09:57:44.814Z,101572.56
2022-10-18T10:00:24.878Z,101567.09
2022-10-18T10:02:51.903Z,101574.31
2022-10-18T10:05:19.775Z,101563.44
2022-10-18T10:07:49.216Z,101569.06
2022-10-18T10:10:24.461Z,101562.59
2022-10-18T10:13:16.073Z,101561.41
2022-10-18T10:15:54.995Z,101552.38
2022-10-18T10:18:25.245Z,101547.66
2022-10-18T10:20:53.453Z,101540.84
2022-10-18T10:23:26.818Z,101541.34
2022-10-18T10:26:20.209Z,101529.75
2022-10-18T10:28:49.010Z,101530.00
2022-10-18T10:31:18.932Z,101522.88
2022-10-18T10:33:48.119Z,101523.19
2022-10-18T10:36:21.652Z,101524.00
2022-10-18T10:39:19.190Z,101519.75
2022-10-18T10:41:54.512Z,101516.88
2022-10-18T10:44:28.807Z,101510.44
2022-10-18T10:46:55.886Z,101504.16
2022-10-18T10:49:39.699Z,101495.69
2022-10-18T10:52:08.842Z,101493.16
2022-10-18T10:54:50.319Z,101480.66
2022-10-18T10:57:25.921Z,101489.50
2022-10-18T10:59:55.411Z,101490.91
2022-10-18T11:02:30.213Z,101484.13
2022-10-18T11:05:25.566Z,101479.56
2022-10-18T11:07:58.570Z,101473.31
2022-10-18T11:10:30.988Z,101474.16
2022-10-18T11:13:31.923Z,101471.94
2022-10-18T11:16:06.963Z,101467.84
2022-10-18T11:18:36.699Z,101465.13
2022-10-18T11:21:18.852Z,101461.63
2022-10-18T11:23:46.255Z,101452.91
2022-10-18T11:26:13.121Z,101445.19
2022-10-18T11:29:07.103Z,101455.22
2022-10-18T11:31:55.943Z,101437.97
2022-10-18T11:34:43.851Z,101436.13
2022-10-18T11:37:52.012Z,101437.97
2022-10-18T11:40:45.970Z,101434.00
2022-10-18T11:43:57.176Z,101427.16
2022-10-18T11:46:32.747Z,101420.94
2022-10-18T11:49:50.660Z,101415.66
2022-10-18T11:52:45.671Z,101405.06
2022-10-18T11:55:56.124Z,101404.22
2022-10-18T11:59:01.694Z,101399.81
2022-10-18T12:02:13.112Z,101398.09
2022-10-18T12:04:58.529Z,101392.44
2022-10-18T12:07:41.613Z,101385.69
2022-10-18T12:10:19.492Z,101392.28
2022-10-18T12:13:02.135Z,101382.38
2022-10-18T12:15:33.649Z,101383.38
2022-10-18T12:18:06.409Z,101380.81
2022-10-18T12:20:43.578Z,101372.31
2022-10-18T12:23:15.819Z,101370.16
2022-10-18T12:25:47.823Z,101369.09
2022-10-18T12:28:32.865Z,101367.25
2022-10-18T12:31:24.430Z,101358.31
2022-10-18T12:33:56.734Z,101360.16
2022-10-18T12:36:48.163Z,101345.16
2022-10-18T12:39:37.565Z,101345.16
2022-10-18T12:42:29.678Z,101346.75
2022-10-18T12:45:25.798Z,101336.47
2022-10-18T12:47:52.983Z,101335.75
2022-10-18T12:50:28.371Z,101331.47
2022-10-18T12:53:26.654Z,101326.84
2022-10-18T12:55:54.870Z,101313.78
2022-10-18T12:58:31.541Z,101317.56
2022-10-18T13:01:07.092Z,101306.84
2022-10-18T13:03:50.978Z,101309.59
2022-10-18T13:06:17.945Z,101312.16
2022-10-18T13:08:46.070Z,101309.66
2022-10-18T13:11:13.022Z,101303.13
2022-10-18T13:14:10.944Z,101290.44
2022-10-18T13:16:44.528Z,101303.19
2022-10-18T13:19:35.580Z,101294.38
2022-10-18T13:22:56.746Z,101296.59
2022-10-18T13:25:29.296Z,101288.53
2022-10-18T13:28:14.785Z,101282.16
2022-10-18T13:30:55.847Z,101276.56
2022-10-18T13:33:39.071Z,101276.13
2022-10-18T13:36:22.709Z,101288.09
2022-10-18T13:38:50.498Z,101287.56
2022-10-18T13:41:26.863Z,101287.81
2022-10-18T13:44:24.393Z,101288.03
2022-10-18T13:46:51.493Z,101288.13
2022-10-18T13:49:40.391Z,101283.38
2022-10-18T13:52:28.359Z,101281.59
2022-10-18T13:55:03.200Z,101280.44
2022-10-18T13:57:51.029Z,101275.81
2022-10-18T14:00:49.153Z,101273.03
2022-10-18T14:03:57.995Z,101275.72
2022-10-18T14:06:41.741Z,101268.75
2022-10-18T14:09:40.287Z,101256.91
2022-10-18T14:12:44.826Z,101262.66
2022-10-18T14:15:27.385Z,101256.72
2022-10-18T14:18:18.875Z,101256.31
2022-10-18T14:21:12.250Z,101250.09
2022-10-18T14:23:44.749Z,101247.03
2022-10-18T14:26:15.385Z,101251.88
2022-10-18T14:28:59.137Z,101246.66
2022-10-18T14:31:27.081Z,101244.75
2022-10-18T14:33:58.341Z,101239.97
2022-10-18T14:36:29.374Z,101230.78
2022-10-18T14:38:56.296Z,101237.25
2022-10-18T14:41:28.151Z,101233.97
2022-10-18T14:44:21.126Z,101223.09
2022-10-18T14:46:58.236Z,101223.75
2022-10-18T14:49:25.710Z,101219.91
2022-10-18T14:51:56.246Z,101222.78
2022-10-18T14:54:32.826Z,101210.56
2022-10-18T14:57:00.683Z,101219.59
2022-10-18T14:59:30.693Z,101214.25
2022-10-18T15:02:05.202Z,101207.81
2022-10-18T15:04:35.228Z,101204.97
2022-10-18T15:07:05.035Z,101202.38
2022-10-18T15:09:34.139Z,101208.31
2022-10-18T15:12:03.424Z,101205.16
2022-10-18T15:14:30.829Z,101201.81
2022-10-18T15:17:07.461Z,101200.47
2022-10-18T15:19:39.364Z,101197.94
2022-10-18T15:25:04.240Z,101199.91
2022-10-18T15:27:37.998Z,101183.25
2022-10-18T15:30:15.590Z,101182.34
2022-10-18T15:32:52.125Z,101184.53
2022-10-18T15:35:26.523Z,101187.72
2022-10-18T15:37:54.968Z,101191.97
2022-10-18T15:40:21.852Z,101186.63
2022-10-18T15:42:53.593Z,101192.22
2022-10-18T15:45:27.521Z,101191.31
2022-10-18T15:48:12.298Z,101181.22
2022-10-18T15:50:42.698Z,101186.28
2022-10-18T15:53:22.620Z,101182.66
2022-10-18T15:56:02.938Z,101185.66
2022-10-18T15:58:39.574Z,101191.84
2022-10-18T16:01:21.186Z,101185.72
2022-10-18T16:03:49.633Z,101184.69
2022-10-18T16:06:18.374Z,101185.13
2022-10-18T16:08:48.596Z,101183.97
2022-10-18T16:11:25.488Z,101178.00
2022-10-18T16:13:55.263Z,101181.97
2022-10-18T16:16:26.916Z,101177.25
2022-10-18T16:18:53.994Z,101187.16
2022-10-18T16:21:26.478Z,101184.31
2022-10-18T16:23:53.619Z,101181.00
2022-10-18T16:26:22.186Z,101178.31
2022-10-18T16:28:49.960Z,101183.00
2022-10-18T16:31:22.788Z,101184.00
2022-10-18T16:33:50.579Z,101185.16
2022-10-18T16:36:20.309Z,101194.28
2022-10-18T16:38:48.022Z,101188.81
2022-10-18T16:41:15.988Z,101187.88
2022-10-18T16:43:44.756Z,101196.06
2022-10-18T16:46:28.333Z,101199.41
2022-10-18T16:48:55.528Z,101203.59
2022-10-18T16:51:22.860Z,101201.16
2022-10-18T16:53:49.884Z,101195.13
2022-10-18T16:56:19.901Z,101188.22
2022-10-18T16:58:47.145Z,101194.28
2022-10-18T17:01:16.844Z,101197.63
2022-10-18T17:03:43.796Z,101195.50
2022-10-18T17:06:17.352Z,101189.09
2022-10-18T17:08:44.789Z,101190.56
2022-10-18T17:11:13.261Z,101187.38
2022-10-18T17:13:40.471Z,101192.72
2022-10-18T17:16:15.778Z,101201.47
2022-10-18T17:18:44.069Z,101192.66
2022-10-18T17:21:11.257Z,101200.00
2022-10-18T17:23:39.003Z,101199.59
2022-10-18T17:26:27.728Z,101203.25
2022-10-18T17:29:00.739Z,101203.09
2022-10-18T17:31:29.488Z,101203.19
2022-10-18T17:33:58.348Z,101193.22
2022-10-18T17:36:25.482Z,101198.59
2022-10-18T17:38:53.367Z,101195.09
2022-10-18T17:41:21.377Z,101188.28
2022-10-18T17:43:48.585Z,101176.06
2022-10-18T17:46:17.760Z,101178.88
2022-10-18T17:48:44.667Z,101180.88
2022-10-18T17:51:14.201Z,101168.13
2022-10-18T17:53:40.973Z,101177.00
2022-10-18T17:56:10.956Z,101175.00
2022-10-18T17:58:37.821Z,101178.31
2022-10-18T18:01:17.905Z,101173.34
2022-10-18T18:03:47.572Z,101174.91
2022-10-18T18:06:22.451Z,101179.34
2022-10-18T18:08:50.428Z,101183.00
2022-10-18T18:11:18.052Z,101181.56
2022-10-18T18:13:44.888Z,101186.50
2022-10-18T18:16:20.194Z,101183.53
2022-10-18T18:18:49.887Z,101174.22
2022-10-18T18:21:17.506Z,101181.13
2022-10-18T18:23:44.625Z,101172.91
2022-10-18T18:26:11.916Z,101180.50
2022-10-18T18:28:39.117Z,101177.25
2022-10-18T18:31:11.440Z,101167.19
2022-10-18T18:33:38.527Z,101163.34
2022-10-18T18:36:08.909Z,101170.53
2022-10-18T18:38:46.743Z,101173.31
2022-10-18T18:41:19.246Z,101172.91
2022-10-18T18:43:54.035Z,101174.56
2022-10-18T18:46:22.375Z,101168.84
2022-10-18T18:48:49.436Z,101164.06
2022-10-18T18:51:19.036Z,101164.91
2022-10-18T18:53:47.064Z,101141.63
2022-10-18T18:58:52.979Z,101149.81
2022-10-18T19:01:35.238Z,101148.78
2022-10-18T19:04:02.462Z,101144.06
2022-10-18T19:06:32.608Z,101147.78
2022-10-18T19:09:04.822Z,101150.41
2022-10-18T19:11:35.524Z,101146.53
2022-10-18T19:14:03.791Z,101139.84
2022-10-18T19:16:39.499Z,101149.19
2022-10-18T19:19:06.486Z,101145.31
2022-10-18T19:21:36.021Z,101153.00
2022-10-18T19:24:03.754Z,101150.31
2022-10-18T19:26:32.493Z,101145.47
2022-10-18T19:29:06.928Z,101143.47
2022-10-18T19:31:35.026Z,101133.59
2022-10-18T19:34:05.148Z,101142.44
2022-10-18T19:36:35.406Z,101143.94
2022-10-18T19:39:03.478Z,101142.78
2022-10-18T19:41:33.348Z,101147.13
2022-10-18T19:44:00.188Z,101140.13
2022-10-18T19:46:27.129Z,101141.84
2022-10-18T19:48:54.338Z,101153.72
2022-10-18T19:51:26.873Z,101148.97
2022-10-18T19:53:56.481Z,101138.66
2022-10-18T19:56:27.920Z,101143.63
2022-10-18T19:58:59.092Z,101155.44
2022-10-18T20:01:28.465Z,101147.63
2022-10-18T20:03:57.959Z,101137.25
2022-10-18T20:06:25.437Z,101135.75
2022-10-18T20:08:52.403Z,101140.56
2022-10-18T20:11:22.731Z,101135.44
2022-10-18T20:13:50.177Z,101136.38
2022-10-18T20:16:23.053Z,101125.56
2022-10-18T20:19:00.946Z,101126.81
2022-10-18T20:21:35.584Z,101119.81
2022-10-18T20:24:03.948Z,101114.25
2022-10-18T20:26:30.988Z,101119.88
2022-10-18T20:28:59.681Z,101114.06
2022-10-18T20:31:32.154Z,101115.03
2022-10-18T20:34:00.897Z,101121.34
2022-10-18T20:36:29.924Z,101118.78
2022-10-18T20:38:56.827Z,101110.50
2022-10-18T20:41:32.635Z,101113.56
2022-10-18T20:44:02.339Z,101120.97
2022-10-18T20:46:34.398Z,101116.06
2022-10-18T20:49:01.680Z,101117.03
2022-10-18T20:51:28.868Z,101115.50
2022-10-18T20:53:55.846Z,101112.63
2022-10-18T20:56:26.687Z,101112.69
2022-10-18T20:58:56.383Z,101101.19
2022-10-18T21:01:31.776Z,101100.41
2022-10-18T21:04:01.322Z,101107.66
2022-10-18T21:06:30.873Z,101097.31
2022-10-18T21:09:00.019Z,101094.31
2022-10-18T21:11:28.753Z,101095.53
2022-10-18T21:13:59.559Z,101101.38
2022-10-18T21:16:27.235Z,101094.84
2022-10-18T21:18:54.077Z,101095.13
2022-10-18T21:21:24.077Z,101096.97
2022-10-18T21:23:52.159Z,101102.53
2022-10-18T21:26:26.819Z,101101.66
2022-10-18T21:28:55.263Z,101101.06
2022-10-18T21:31:24.463Z,101104.56
2022-10-18T21:33:56.817Z,101097.38
2022-10-18T21:36:25.044Z,101090.88
2022-10-18T21:38:51.921Z,101089.06
2022-10-18T21:41:20.560Z,101088.69
2022-10-18T21:43:49.784Z,101081.13
2022-10-18T21:46:17.973Z,101076.44
2022-10-18T21:48:46.839Z,101074.66
2022-10-18T21:51:15.869Z,101067.44
2022-10-18T21:53:46.075Z,101063.38
2022-10-18T21:56:16.032Z,101059.41
2022-10-18T21:58:43.428Z,101054.84
2022-10-18T22:01:13.558Z,101042.38
2022-10-18T22:03:41.105Z,101058.34
2022-10-18T22:06:14.247Z,101055.91
2022-10-18T22:08:42.609Z,101044.81
2022-10-18T22:11:09.965Z,101043.00
2022-10-18T22:13:36.716Z,101047.06
2022-10-18T22:16:05.348Z,101045.44
2022-10-18T22:18:32.992Z,101045.59
2022-10-18T22:21:06.517Z,101047.56
2022-10-18T22:23:35.423Z,101044.22
2022-10-18T22:26:13.543Z,101036.91
2022-10-18T22:28:42.159Z,101034.03
2022-10-18T22:31:21.314Z,101038.16
2022-10-18T22:33:53.665Z,101038.88
2022-10-18T22:36:20.875Z,101033.53
2022-10-18T22:38:47.618Z,101030.16
2022-10-18T22:41:14.696Z,101026.25
2022-10-18T22:43:41.724Z,101031.38
2022-10-18T22:46:11.553Z,101028.81
2022-10-18T22:48:38.712Z,101028.56
2022-10-18T22:51:05.881Z,101033.00
2022-10-18T22:53:33.603Z,101038.44
2022-10-18T22:56:00.752Z,101031.06
2022-10-18T22:58:27.775Z,101021.38
2022-10-18T23:01:13.132Z,101025.25
2022-10-18T23:03:40.637Z,101035.25
2022-10-18T23:06:22.691Z,101025.63
2022-10-18T23:08:49.985Z,101036.09
2022-10-18T23:11:17.851Z,101032.94
2022-10-18T23:13:44.845Z,101025.78
2022-10-18T23:16:12.052Z,101018.72
2022-10-18T23:21:10.097Z,101008.47
2022-10-18T23:23:39.491Z,101015.94
2022-10-18T23:26:12.218Z,101013.16
2022-10-18T23:28:41.387Z,101014.78
2022-10-18T23:31:30.745Z,101020.22
2022-10-18T23:34:01.077Z,101014.31
2022-10-18T23:36:28.538Z,101018.94
2022-10-18T23:38:55.784Z,101025.25
2022-10-18T23:41:23.278Z,101003.75
2022-10-18T23:43:50.095Z,101008.31
2022-10-18T23:46:18.341Z,101005.38
2022-10-18T23:48:45.996Z,100996.72
2022-10-18T23:51:12.966Z,101003.19
2022-10-18T23:53:40.387Z,100997.38
2022-10-18T23:56:11.437Z,100999.31
2022-10-18T23:58:39.234Z,101001.25
